Coral Ruby — 3ERR6 — position and weather

sailwx.info

Track history (hours):
 
Tides and Currents Weather Stations Pressure Air Temp Water Temp Dewpoint Dewpoint Depression Visibility Wind Speed Wind Dir Waves Ship Positions

Coral Ruby

Last reported at 2018-May-21 16:35 UTC. Time now 2018-May-24 12:11 UTC.
Position N 01°15' E 104°01'.

Length 225 m; draft 7.8 m.

Type: Cargo ship. MMSI: 370150000.

Date/timePositionNaut miles runAvg speedWind from/ knotsBaromVisibWave heightAir tempDewpointWater temp
2018-May-21 16:35N 01°15' E 104°01'110.5
2018-May-21 16:27N 01°15' E 103°60'510.5
2018-May-21 16:00N 01°13' E 103°55'4 8.9
2018-May-21 15:30N 01°11' E 103°51'4 8.9
2018-May-21 15:00N 01°10' E 103°47'510.0
2018-May-21 14:30N 01°06' E 103°44'7 9.7
2018-May-21 13:48N 01°03' E 103°37'410.3
2018-May-21 13:25N 01°05' E 103°34'911.6
2018-May-21 12:40N 01°10' E 103°26'  
2018-May-16 09:50N 01°21' E 103°15'513.9
2018-May-16 09:26N 01°18' E 103°20'813.2
2018-May-16 08:51N 01°14' E 103°27'412.7
2018-May-16 08:31N 01°13' E 103°31'612.2
2018-May-16 08:00N 01°11' E 103°37'611.9
2018-May-16 07:30N 01°09' E 103°42'510.7
2018-May-16 07:01N 01°10' E 103°47'611.2
2018-May-16 06:30N 01°12' E 103°53'611.1
2018-May-16 05:58N 01°15' E 103°58'612.2
2018-May-16 05:30N 01°16' E 104°04'612.4
2018-May-16 04:59N 01°17' E 104°10'612.9
2018-May-16 04:29N 01°18' E 104°16'612.8
2018-May-16 03:59N 01°21' E 104°22'612.4
2018-May-16 03:28N 01°25' E 104°27'  
Track history (hours):
 
Tides and Currents Weather Stations Pressure Air Temp Water Temp Dewpoint Dewpoint Depression Visibility Wind Speed Wind Dir Waves Ship Positions

Coral Ruby

Last reported at 2018-May-21 16:35 UTC. Time now 2018-May-24 12:11 UTC.
Position N 01°15' E 104°01'.

Length 225 m; draft 7.8 m.

Type: Cargo ship. MMSI: 370150000.

Date/timePositionNaut miles runAvg speedWind from/ knotsBaromVisibWave heightAir tempDewpointWater temp
2018-May-21 16:35N 01°15' E 104°01'110.5
2018-May-21 16:27N 01°15' E 103°60'510.5
2018-May-21 16:00N 01°13' E 103°55'4 8.9
2018-May-21 15:30N 01°11' E 103°51'4 8.9
2018-May-21 15:00N 01°10' E 103°47'510.0
2018-May-21 14:30N 01°06' E 103°44'7 9.7
2018-May-21 13:48N 01°03' E 103°37'410.3
2018-May-21 13:25N 01°05' E 103°34'911.6
2018-May-21 12:40N 01°10' E 103°26'  
2018-May-16 09:50N 01°21' E 103°15'513.9
2018-May-16 09:26N 01°18' E 103°20'813.2
2018-May-16 08:51N 01°14' E 103°27'412.7
2018-May-16 08:31N 01°13' E 103°31'612.2
2018-May-16 08:00N 01°11' E 103°37'611.9
2018-May-16 07:30N 01°09' E 103°42'510.7
2018-May-16 07:01N 01°10' E 103°47'611.2
2018-May-16 06:30N 01°12' E 103°53'611.1
2018-May-16 05:58N 01°15' E 103°58'612.2
2018-May-16 05:30N 01°16' E 104°04'612.4
2018-May-16 04:59N 01°17' E 104°10'612.9
2018-May-16 04:29N 01°18' E 104°16'612.8
2018-May-16 03:59N 01°21' E 104°22'612.4
2018-May-16 03:28N 01°25' E 104°27'  

Dump ship's entire track history